Time;durP1;ratioP1;P1;durP2;ratioP2;P2;SDS_P1;SDS_P2;PMS_P1;PMS_P2;Temp;Humidity;BMP_temperature;BMP_pressure;BME280_temperature;BME280_humidity;BME280_pressure;Samples;Min_cycle;Max_cycle;Signal;HPM_P1;HPM_P2
2023/10/02 00:05:06;;;;;;;14.90;9.00;;;18.40;99.90;;;;;;5019219;28;20477;-68
2023/10/02 00:07:36;;;;;;;15.17;8.83;;;18.30;99.90;;;;;;5021668;28;20937;-69
2023/10/02 00:10:02;;;;;;;14.57;9.40;;;18.30;99.90;;;;;;5021292;28;20486;-69
2023/10/02 00:12:28;;;;;;;15.53;9.33;;;18.30;99.90;;;;;;5018193;28;20455;-68
2023/10/02 00:14:55;;;;;;;14.60;9.37;;;18.20;99.90;;;;;;5021009;28;20423;-69
2023/10/02 00:17:23;;;;;;;12.90;8.50;;;18.20;99.90;;;;;;5022332;28;20192;-69
2023/10/02 00:19:57;;;;;;;17.70;8.90;;;18.20;99.90;;;;;;5022271;28;20463;-69
2023/10/02 00:22:37;;;;;;;16.87;8.97;;;18.30;99.90;;;;;;5018810;28;20451;-69
2023/10/02 00:25:19;;;;;;;12.50;8.10;;;18.20;99.90;;;;;;5018644;28;20429;-68
2023/10/02 00:27:50;;;;;;;11.53;8.10;;;18.20;99.90;;;;;;5023427;28;20430;-68
2023/10/02 00:30:20;;;;;;;12.67;8.57;;;18.20;99.90;;;;;;5022152;28;20584;-68
2023/10/02 00:32:47;;;;;;;13.30;8.20;;;18.20;99.90;;;;;;5025759;28;20561;-69
2023/10/02 00:35:14;;;;;;;12.73;8.80;;;18.20;99.90;;;;;;5025717;28;20441;-68
2023/10/02 00:37:44;;;;;;;14.63;9.30;;;18.20;99.90;;;;;;5014995;28;20530;-68
2023/10/02 00:40:22;;;;;;;13.10;9.00;;;18.10;99.90;;;;;;5023691;28;20476;-69
2023/10/02 00:42:55;;;;;;;14.53;9.27;;;18.10;99.90;;;;;;5021695;28;20455;-69
2023/10/02 00:45:24;;;;;;;12.77;8.60;;;18.20;99.90;;;;;;5022417;28;20472;-69
2023/10/02 00:47:53;;;;;;;13.20;8.50;;;18.10;99.90;;;;;;5021272;28;20993;-68
2023/10/02 00:50:19;;;;;;;14.73;9.50;;;18.10;99.90;;;;;;5021560;28;20460;-69
2023/10/02 00:52:50;;;;;;;15.10;8.20;;;18.10;99.90;;;;;;5025586;28;20450;-69
2023/10/02 00:55:24;;;;;;;15.87;8.87;;;18.10;99.90;;;;;;5022772;28;20497;-68
2023/10/02 00:57:56;;;;;;;14.00;9.33;;;18.10;99.90;;;;;;5023665;28;20560;-68
2023/10/02 01:00:31;;;;;;;13.97;9.20;;;18.10;99.90;;;;;;5022765;28;20811;-68
2023/10/02 01:02:58;;;;;;;14.53;9.30;;;18.00;99.90;;;;;;5023467;28;20438;-69
2023/10/02 01:05:41;;;;;;;14.77;8.03;;;18.00;99.90;;;;;;5023046;28;20435;-69
2023/10/02 01:08:25;;;;;;;13.20;8.40;;;18.00;99.90;;;;;;5022719;28;20770;-68
2023/10/02 01:10:56;;;;;;;15.30;9.80;;;18.00;99.90;;;;;;5018423;28;20475;-69
2023/10/02 01:13:27;;;;;;;14.10;8.53;;;18.00;99.90;;;;;;5032683;28;20504;-69
2023/10/02 01:15:54;;;;;;;16.47;9.93;;;18.00;99.90;;;;;;5019120;28;20522;-68
2023/10/02 01:18:27;;;;;;;15.30;7.90;;;17.90;99.90;;;;;;5025338;28;20939;-70
2023/10/02 01:20:56;;;;;;;14.90;8.93;;;17.90;99.90;;;;;;5020023;28;20439;-69
2023/10/02 01:23:25;;;;;;;19.70;9.37;;;17.90;99.90;;;;;;5022428;28;20513;-69
2023/10/02 01:25:56;;;;;;;15.80;8.40;;;17.90;99.90;;;;;;5025534;28;20423;-69
2023/10/02 01:28:25;;;;;;;11.40;7.97;;;17.90;99.90;;;;;;5023731;28;20423;-68
2023/10/02 01:30:51;;;;;;;14.00;8.53;;;17.90;99.90;;;;;;5020562;28;21012;-68
2023/10/02 01:33:26;;;;;;;12.80;8.23;;;17.90;99.90;;;;;;5021268;28;20450;-68
2023/10/02 01:35:54;;;;;;;15.00;9.50;;;17.90;99.90;;;;;;5019741;28;20442;-68
2023/10/02 01:38:31;;;;;;;15.50;8.30;;;17.90;99.90;;;;;;5021988;28;20442;-69
2023/10/02 01:41:05;;;;;;;15.20;9.13;;;17.80;99.90;;;;;;5024829;28;20446;-69
2023/10/02 01:43:35;;;;;;;18.30;8.47;;;17.80;99.90;;;;;;5017897;28;20454;-69
2023/10/02 01:46:03;;;;;;;13.83;9.00;;;17.80;99.90;;;;;;5020101;28;20426;-68
2023/10/02 01:48:39;;;;;;;13.00;9.33;;;17.80;99.90;;;;;;5021611;28;20442;-68
2023/10/02 01:51:20;;;;;;;14.23;9.00;;;17.80;99.90;;;;;;5021898;28;20556;-69
2023/10/02 01:53:49;;;;;;;17.17;8.70;;;17.80;99.90;;;;;;5018106;28;20497;-69
2023/10/02 01:56:16;;;;;;;12.90;8.37;;;17.80;99.90;;;;;;5021237;28;20510;-68
2023/10/02 01:58:43;;;;;;;13.33;8.83;;;17.80;99.90;;;;;;5023775;28;20422;-68
2023/10/02 02:01:09;;;;;;;15.30;8.50;;;17.80;99.90;;;;;;5034183;28;20462;-68
2023/10/02 02:03:48;;;;;;;14.37;8.13;;;17.80;99.90;;;;;;5023178;28;20522;-68
2023/10/02 02:06:22;;;;;;;16.57;8.77;;;17.80;99.90;;;;;;5019993;28;20443;-68
2023/10/02 02:08:58;;;;;;;12.80;8.27;;;17.80;99.90;;;;;;5023391;28;21255;-68
2023/10/02 02:11:26;;;;;;;19.60;9.83;;;17.70;99.90;;;;;;5021721;28;20470;-68
2023/10/02 02:13:58;;;;;;;16.40;8.80;;;17.60;99.90;;;;;;5023093;28;20446;-69
2023/10/02 02:16:31;;;;;;;12.23;8.00;;;17.60;99.90;;;;;;5019670;28;20422;-69
2023/10/02 02:18:58;;;;;;;14.23;8.87;;;17.60;99.90;;;;;;5018420;28;20514;-69
2023/10/02 02:21:24;;;;;;;14.50;8.20;;;17.60;99.90;;;;;;5021082;28;20422;-69
2023/10/02 02:24:03;;;;;;;12.67;8.73;;;17.60;99.90;;;;;;5023871;28;20486;-69
2023/10/02 02:26:31;;;;;;;14.10;9.27;;;17.60;99.90;;;;;;5023588;28;20450;-69
2023/10/02 02:28:57;;;;;;;14.80;8.90;;;17.60;99.90;;;;;;5023950;28;20434;-68
2023/10/02 02:31:32;;;;;;;19.63;9.90;;;17.60;99.90;;;;;;5019681;28;20498;-68
2023/10/02 02:34:01;;;;;;;14.17;9.07;;;17.60;99.90;;;;;;5021332;28;20439;-68
2023/10/02 02:36:28;;;;;;;17.30;8.77;;;17.60;99.90;;;;;;5018311;28;20442;-68
2023/10/02 02:39:15;;;;;;;13.60;8.40;;;17.50;99.90;;;;;;5021499;28;20424;-69
2023/10/02 02:41:48;;;;;;;13.60;8.17;;;17.50;99.90;;;;;;5022906;28;20557;-69
2023/10/02 02:47:07;;;;;;;13.47;8.40;;;17.40;99.90;;;;;;5023613;28;20834;-69
2023/10/02 02:49:48;;;;;;;13.13;7.77;;;17.40;99.90;;;;;;5022797;28;20514;-69
2023/10/02 02:52:27;;;;;;;14.00;9.00;;;17.40;99.90;;;;;;5020718;28;20508;-68
2023/10/02 02:55:12;;;;;;;12.67;7.63;;;17.40;99.90;;;;;;5020660;28;20979;-68
2023/10/02 02:57:39;;;;;;;12.60;9.57;;;17.40;99.90;;;;;;5022253;28;20459;-68
2023/10/02 03:00:29;;;;;;;15.47;7.50;;;17.40;99.90;;;;;;5016938;28;20506;-68
2023/10/02 03:02:57;;;;;;;13.33;8.17;;;17.40;99.90;;;;;;5016308;28;20442;-68
2023/10/02 03:05:25;;;;;;;12.13;8.20;;;17.40;99.90;;;;;;5019914;28;20446;-68
2023/10/02 03:07:56;;;;;;;16.77;8.20;;;17.30;99.90;;;;;;5021270;28;20423;-68
2023/10/02 03:10:23;;;;;;;18.43;8.97;;;17.30;99.90;;;;;;5020794;28;20474;-68
2023/10/02 03:12:51;;;;;;;12.97;8.20;;;17.30;99.90;;;;;;5018256;28;20451;-68
2023/10/02 03:15:19;;;;;;;15.47;8.50;;;17.30;99.90;;;;;;5019557;28;21089;-68
2023/10/02 03:17:45;;;;;;;14.70;8.53;;;17.20;99.90;;;;;;5019419;28;20506;-69
2023/10/02 03:20:24;;;;;;;13.80;7.70;;;17.20;99.90;;;;;;5023285;28;20457;-69
2023/10/02 03:22:57;;;;;;;12.40;7.20;;;17.20;99.90;;;;;;5018291;28;20447;-68
2023/10/02 03:25:28;;;;;;;15.27;8.83;;;17.10;99.90;;;;;;5025129;28;20480;-68
2023/10/02 03:27:57;;;;;;;14.13;9.13;;;17.10;99.90;;;;;;5023587;28;20440;-69
2023/10/02 03:30:38;;;;;;;16.27;8.87;;;17.10;99.90;;;;;;5021261;28;21321;-69
2023/10/02 03:33:17;;;;;;;13.47;8.63;;;17.10;99.90;;;;;;5018478;28;21038;-69
2023/10/02 03:36:10;;;;;;;14.07;8.80;;;17.00;99.90;;;;;;5019553;28;20860;-68
2023/10/02 03:38:42;;;;;;;18.93;8.73;;;17.00;99.90;;;;;;5020641;28;20513;-68
2023/10/02 03:41:10;;;;;;;14.70;9.07;;;17.00;99.90;;;;;;5023062;28;20427;-68
2023/10/02 03:43:42;;;;;;;14.73;8.80;;;17.00;99.90;;;;;;5016144;28;20454;-68
2023/10/02 03:46:13;;;;;;;15.20;8.77;;;17.00;99.90;;;;;;5021882;28;20432;-68
2023/10/02 03:48:39;;;;;;;12.97;8.20;;;17.00;99.90;;;;;;5020409;28;20419;-68
2023/10/02 03:51:06;;;;;;;11.60;8.67;;;17.00;99.90;;;;;;5023180;28;20557;-68
2023/10/02 03:53:33;;;;;;;14.77;8.70;;;17.00;99.90;;;;;;5019745;28;20490;-68
2023/10/02 03:58:53;;;;;;;17.53;8.50;;;17.00;99.90;;;;;;5022313;28;20464;-69
2023/10/02 04:01:31;;;;;;;14.17;8.43;;;16.90;99.90;;;;;;5019188;28;20435;-69
2023/10/02 04:06:42;;;;;;;14.77;9.43;;;16.90;99.90;;;;;;5023964;28;20910;-68
2023/10/02 04:09:18;;;;;;;17.40;8.33;;;16.90;99.90;;;;;;5023707;28;21216;-68
2023/10/02 04:11:45;;;;;;;15.43;7.80;;;16.90;99.90;;;;;;5024387;28;20554;-69
2023/10/02 04:14:17;;;;;;;16.70;9.00;;;16.90;99.90;;;;;;5023719;28;20431;-69
2023/10/02 04:16:49;;;;;;;15.30;8.80;;;16.80;99.90;;;;;;5019072;28;20928;-69
2023/10/02 04:19:16;;;;;;;15.60;8.80;;;16.80;99.90;;;;;;5031026;28;20422;-68
2023/10/02 04:21:45;;;;;;;15.70;8.90;;;16.80;99.90;;;;;;5023430;28;20437;-68
2023/10/02 04:24:11;;;;;;;12.83;7.97;;;16.80;99.90;;;;;;5024026;28;20780;-69
2023/10/02 04:26:41;;;;;;;13.23;8.20;;;16.80;99.90;;;;;;5023623;28;20442;-68
2023/10/02 04:29:15;;;;;;;14.57;8.27;;;16.80;99.90;;;;;;5025452;28;20411;-68
2023/10/02 04:31:44;;;;;;;14.60;8.27;;;16.80;99.90;;;;;;5022199;28;20481;-68
2023/10/02 04:34:29;;;;;;;17.50;9.30;;;16.80;99.90;;;;;;5017744;28;20815;-68
2023/10/02 04:36:55;;;;;;;16.33;9.57;;;16.80;99.90;;;;;;5025386;28;20485;-68
2023/10/02 04:42:11;;;;;;;14.87;9.43;;;16.70;99.90;;;;;;5025397;28;20234;-68
2023/10/02 04:44:44;;;;;;;14.37;8.90;;;16.70;99.90;;;;;;5020521;28;20431;-68
2023/10/02 04:47:17;;;;;;;14.80;8.43;;;16.70;99.90;;;;;;5020107;28;20435;-68
2023/10/02 04:55:24;;;;;;;15.17;8.17;;;16.70;99.90;;;;;;5020149;28;20442;-69
2023/10/02 04:57:54;;;;;;;19.63;10.53;;;16.70;99.90;;;;;;5023991;28;20473;-68
2023/10/02 05:00:28;;;;;;;13.83;8.03;;;16.70;99.90;;;;;;5016824;28;20427;-68
2023/10/02 05:03:17;;;;;;;14.37;8.50;;;16.70;99.90;;;;;;5020172;28;21157;-68
2023/10/02 05:05:49;;;;;;;15.63;8.77;;;16.70;99.90;;;;;;5018552;28;20716;-68
2023/10/02 05:08:21;;;;;;;14.77;8.93;;;16.70;99.90;;;;;;5024089;28;20415;-68
2023/10/02 05:10:49;;;;;;;18.83;9.83;;;16.60;99.90;;;;;;5022297;28;20544;-68
2023/10/02 05:13:45;;;;;;;17.03;8.67;;;16.60;99.90;;;;;;5021464;28;20453;-68
2023/10/02 05:16:11;;;;;;;17.97;9.00;;;16.60;99.90;;;;;;5023535;28;20489;-68
2023/10/02 05:18:39;;;;;;;15.60;8.80;;;16.60;99.90;;;;;;5024120;28;20454;-69
2023/10/02 05:21:07;;;;;;;15.20;9.20;;;16.60;99.90;;;;;;5026311;28;20462;-68
2023/10/02 05:23:33;;;;;;;13.70;9.60;;;16.60;99.90;;;;;;5021222;28;20475;-69
2023/10/02 05:26:04;;;;;;;17.70;10.03;;;16.60;99.90;;;;;;5024143;28;20495;-69
2023/10/02 05:28:51;;;;;;;16.27;9.50;;;16.70;99.90;;;;;;5023496;28;20185;-69
2023/10/02 05:31:16;;;;;;;16.93;9.10;;;16.60;99.90;;;;;;5021763;28;20481;-69
2023/10/02 05:33:43;;;;;;;18.80;9.97;;;16.70;99.90;;;;;;5022111;28;20427;-68
2023/10/02 05:36:09;;;;;;;16.17;10.10;;;16.60;99.90;;;;;;5021783;28;20653;-68
2023/10/02 05:38:36;;;;;;;14.53;9.43;;;16.60;99.90;;;;;;5025141;28;20423;-68
2023/10/02 05:41:03;;;;;;;15.60;8.73;;;16.70;99.90;;;;;;5024301;28;20668;-68
2023/10/02 05:43:31;;;;;;;18.50;9.63;;;16.70;99.90;;;;;;5021793;28;20459;-69
2023/10/02 05:45:57;;;;;;;13.70;8.57;;;16.70;99.90;;;;;;5023425;28;20439;-68
2023/10/02 05:50:53;;;;;;;17.67;10.03;;;16.70;99.90;;;;;;5023065;28;20565;-69
2023/10/02 05:53:20;;;;;;;14.40;8.80;;;16.70;99.90;;;;;;5024115;28;20462;-69
2023/10/02 05:56:05;;;;;;;18.30;9.00;;;16.70;99.90;;;;;;5021131;28;20425;-68
2023/10/02 05:58:32;;;;;;;16.37;8.57;;;16.70;99.90;;;;;;5020823;28;20975;-68
2023/10/02 06:01:06;;;;;;;16.23;8.70;;;16.80;99.90;;;;;;5022700;28;20917;-68
2023/10/02 06:03:36;;;;;;;19.57;9.47;;;16.80;99.90;;;;;;5023322;28;20426;-68
2023/10/02 06:06:21;;;;;;;16.37;8.47;;;16.90;99.90;;;;;;5023535;28;20427;-69
2023/10/02 06:08:49;;;;;;;19.30;9.93;;;16.80;99.90;;;;;;5025404;28;20431;-68
2023/10/02 06:11:25;;;;;;;15.23;9.33;;;16.90;99.90;;;;;;5019225;28;20474;-68
2023/10/02 06:13:56;;;;;;;18.50;9.80;;;16.90;99.90;;;;;;5021206;28;20478;-68
2023/10/02 06:16:41;;;;;;;14.97;9.60;;;16.90;99.90;;;;;;5021789;28;20395;-68
2023/10/02 06:19:13;;;;;;;16.00;9.30;;;16.80;99.90;;;;;;5021764;28;20426;-69
2023/10/02 06:24:28;;;;;;;13.73;8.20;;;16.70;99.90;;;;;;5019366;28;20541;-68
2023/10/02 06:26:57;;;;;;;18.73;9.30;;;16.70;99.90;;;;;;5019477;28;20886;-69
2023/10/02 06:29:28;;;;;;;16.60;9.13;;;16.60;99.90;;;;;;5017789;28;21093;-69
2023/10/02 06:31:58;;;;;;;15.20;9.03;;;16.60;99.90;;;;;;5021667;28;20830;-69
2023/10/02 06:34:39;;;;;;;15.80;9.40;;;16.60;99.90;;;;;;5019888;28;20451;-69
2023/10/02 06:37:13;;;;;;;15.93;9.67;;;16.40;99.90;;;;;;5019572;28;20896;-68
2023/10/02 06:39:46;;;;;;;16.80;9.80;;;16.50;99.90;;;;;;5021567;28;20429;-69
2023/10/02 06:42:19;;;;;;;19.60;9.80;;;16.40;99.90;;;;;;5022326;28;20540;-68
2023/10/02 06:44:54;;;;;;;16.50;8.87;;;16.40;99.90;;;;;;5021613;28;20533;-69
2023/10/02 06:47:24;;;;;;;16.43;8.50;;;16.40;99.90;;;;;;5021289;28;20791;-68
2023/10/02 06:50:02;;;;;;;12.83;7.87;;;16.50;99.90;;;;;;5018911;28;21059;-69
2023/10/02 06:52:29;;;;;;;16.53;8.57;;;16.60;99.90;;;;;;5020753;28;20442;-69
2023/10/02 06:54:56;;;;;;;20.07;9.10;;;16.50;99.90;;;;;;5021999;28;20434;-68
2023/10/02 06:57:24;;;;;;;14.70;8.83;;;16.60;99.90;;;;;;5020287;28;20462;-68
2023/10/02 06:59:51;;;;;;;22.10;10.00;;;16.60;99.90;;;;;;5019453;28;20758;-68
2023/10/02 07:02:21;;;;;;;16.13;9.77;;;16.60;99.90;;;;;;5020148;28;20455;-68
2023/10/02 07:04:48;;;;;;;19.80;10.00;;;16.70;99.90;;;;;;5020390;28;20941;-68
2023/10/02 07:07:24;;;;;;;21.60;11.67;;;16.70;99.90;;;;;;5019814;28;20431;-68
2023/10/02 07:09:51;;;;;;;16.17;10.10;;;16.80;99.90;;;;;;5017405;28;20987;-68
2023/10/02 07:12:16;;;;;;;19.73;11.37;;;16.80;99.90;;;;;;5018425;28;21024;-68
2023/10/02 07:14:43;;;;;;;15.40;9.77;;;16.90;99.90;;;;;;5018729;28;20620;-68
2023/10/02 07:17:16;;;;;;;17.83;10.03;;;16.90;99.90;;;;;;5016749;28;20805;-68
2023/10/02 07:19:51;;;;;;;17.50;9.67;;;17.00;99.90;;;;;;5016037;28;20435;-67
2023/10/02 07:22:24;;;;;;;18.53;9.27;;;17.10;99.90;;;;;;5019844;28;20442;-67
2023/10/02 07:24:55;;;;;;;16.97;10.50;;;17.20;99.90;;;;;;5018064;28;20427;-67
2023/10/02 07:27:26;;;;;;;15.13;10.03;;;17.20;99.90;;;;;;5019866;28;20484;-68
2023/10/02 07:29:53;;;;;;;17.50;9.27;;;17.20;99.90;;;;;;5019252;28;20513;-68
2023/10/02 07:32:23;;;;;;;17.43;10.50;;;17.20;99.90;;;;;;5030762;28;21254;-68
2023/10/02 07:34:50;;;;;;;20.67;10.67;;;17.30;99.90;;;;;;5019830;28;20457;-68
2023/10/02 07:37:21;;;;;;;18.47;10.20;;;17.30;99.90;;;;;;5021701;28;20423;-68
2023/10/02 07:39:56;;;;;;;18.00;10.20;;;17.30;99.90;;;;;;5025178;28;20436;-68
2023/10/02 07:42:28;;;;;;;15.57;9.20;;;17.50;99.90;;;;;;5026430;28;20497;-68
2023/10/02 07:44:56;;;;;;;17.83;9.60;;;17.50;99.90;;;;;;5023511;28;20427;-67
2023/10/02 07:47:22;;;;;;;17.17;9.87;;;17.60;99.90;;;;;;5023855;28;20487;-68
2023/10/02 07:49:54;;;;;;;17.37;10.77;;;17.70;99.90;;;;;;5023917;28;20929;-66
2023/10/02 07:52:29;;;;;;;16.20;9.40;;;17.70;99.90;;;;;;5024385;28;20365;-67
2023/10/02 07:54:59;;;;;;;16.90;10.03;;;17.80;99.90;;;;;;5022076;28;20434;-67
2023/10/02 07:57:32;;;;;;;23.50;10.47;;;17.90;99.90;;;;;;5023555;28;20541;-67
2023/10/02 08:00:05;;;;;;;16.63;9.57;;;18.00;99.90;;;;;;5028680;28;20783;-68
2023/10/02 08:02:33;;;;;;;18.60;9.90;;;18.00;99.90;;;;;;5026093;28;20952;-67
2023/10/02 08:05:02;;;;;;;20.53;10.60;;;18.10;99.90;;;;;;5024304;28;20440;-68
2023/10/02 08:07:29;;;;;;;19.17;9.60;;;18.10;99.90;;;;;;5027167;28;20433;-68
2023/10/02 08:09:57;;;;;;;15.93;9.57;;;18.20;99.90;;;;;;5025735;28;20501;-67
2023/10/02 08:12:29;;;;;;;21.37;9.87;;;18.20;99.90;;;;;;5024875;28;20945;-67
2023/10/02 08:15:01;;;;;;;17.90;10.10;;;18.30;99.90;;;;;;5029247;28;20419;-68
2023/10/02 08:20:15;;;;;;;19.07;13.23;;;18.50;99.90;;;;;;5027871;28;20434;-67
2023/10/02 08:22:45;;;;;;;17.80;11.40;;;18.60;99.90;;;;;;5041956;28;20443;-67
2023/10/02 08:25:14;;;;;;;14.90;9.00;;;18.70;99.90;;;;;;5023114;28;20463;-67
2023/10/02 08:27:44;;;;;;;15.87;9.70;;;18.80;99.90;;;;;;5029431;28;20426;-67
2023/10/02 08:30:27;;;;;;;20.30;9.93;;;18.80;99.90;;;;;;5024193;28;20468;-67
2023/10/02 08:33:06;;;;;;;17.10;10.10;;;18.90;99.90;;;;;;5022016;28;21043;-67
2023/10/02 08:35:36;;;;;;;14.60;9.73;;;19.00;99.90;;;;;;5023574;28;20481;-67
2023/10/02 08:38:21;;;;;;;17.73;10.77;;;19.00;99.90;;;;;;5027406;28;20423;-68
2023/10/02 08:40:57;;;;;;;15.83;9.67;;;19.00;99.90;;;;;;5023604;28;20793;-67
2023/10/02 08:43:25;;;;;;;16.80;9.73;;;19.00;99.90;;;;;;5022232;28;20827;-67
2023/10/02 08:45:51;;;;;;;20.40;11.43;;;19.10;99.90;;;;;;5026009;28;20433;-67
2023/10/02 08:48:20;;;;;;;16.03;9.67;;;19.20;99.90;;;;;;5027808;28;20793;-67
2023/10/02 08:50:49;;;;;;;20.67;11.10;;;19.30;99.90;;;;;;5018848;28;20576;-67
2023/10/02 08:53:22;;;;;;;18.13;9.33;;;19.30;99.90;;;;;;5018348;28;20439;-67
2023/10/02 08:56:21;;;;;;;16.73;9.40;;;19.30;99.90;;;;;;5022338;28;20431;-67
2023/10/02 08:58:47;;;;;;;15.13;10.30;;;19.30;99.90;;;;;;5023063;28;20925;-67
2023/10/02 09:01:20;;;;;;;18.07;9.33;;;19.40;99.90;;;;;;5019111;28;20439;-67
2023/10/02 09:06:41;;;;;;;16.07;9.93;;;19.40;99.90;;;;;;5021169;28;20942;-67
2023/10/02 09:09:21;;;;;;;17.43;10.13;;;19.50;99.90;;;;;;5022759;28;20976;-67
2023/10/02 09:11:52;;;;;;;16.70;10.60;;;19.50;99.90;;;;;;5022837;28;20466;-67
2023/10/02 09:16:46;;;;;;;19.37;10.67;;;19.80;99.90;;;;;;5018931;28;20926;-69
2023/10/02 09:19:31;;;;;;;19.57;10.97;;;19.70;99.90;;;;;;5017561;28;22271;-66
2023/10/02 09:22:06;;;;;;;16.23;10.03;;;19.90;99.90;;;;;;5017747;28;20486;-67
2023/10/02 09:24:55;;;;;;;16.87;9.80;;;19.90;99.90;;;;;;5019777;28;20435;-68
2023/10/02 09:27:28;;;;;;;18.87;10.80;;;20.00;99.90;;;;;;5022270;28;20430;-67
2023/10/02 09:30:20;;;;;;;21.30;12.97;;;20.00;99.90;;;;;;5023257;28;20474;-67
2023/10/02 09:32:51;;;;;;;18.07;9.67;;;20.10;99.90;;;;;;5023542;28;20447;-68
2023/10/02 09:38:03;;;;;;;16.70;9.80;;;20.20;99.90;;;;;;5021764;28;20437;-68
2023/10/02 09:40:29;;;;;;;19.43;10.23;;;20.40;99.90;;;;;;5033700;28;20436;-68
2023/10/02 09:43:07;;;;;;;18.97;10.73;;;20.50;99.90;;;;;;5016925;28;20809;-68
2023/10/02 09:45:37;;;;;;;17.97;10.43;;;20.60;99.90;;;;;;5014285;28;20708;-71
2023/10/02 09:48:46;;;;;;;16.43;9.40;;;20.60;99.90;;;;;;5020007;28;20423;-68
2023/10/02 09:50:54;;;;;;;17.23;10.37;;;20.80;99.90;;;;;;5021482;28;21192;-69
2023/10/02 09:53:25;;;;;;;18.63;9.57;;;20.90;99.90;;;;;;5018419;28;20470;-67
2023/10/02 09:55:52;;;;;;;18.57;10.20;;;20.90;99.90;;;;;;5018692;28;20436;-68
2023/10/02 09:58:49;;;;;;;16.83;10.17;;;21.10;99.90;;;;;;5020320;28;20790;-67
2023/10/02 10:01:42;;;;;;;20.07;9.50;;;21.20;99.90;;;;;;5019547;28;20423;-68
2023/10/02 10:07:09;;;;;;;18.03;11.77;;;21.20;99.90;;;;;;5022701;28;20527;-67
2023/10/02 10:09:51;;;;;;;20.40;12.43;;;21.30;99.90;;;;;;5021301;28;20431;-67
2023/10/02 10:12:21;;;;;;;16.20;10.70;;;21.50;99.90;;;;;;5018466;28;20490;-67
2023/10/02 10:14:54;;;;;;;15.40;9.63;;;21.60;99.90;;;;;;5018006;28;20446;-67
2023/10/02 10:17:21;;;;;;;19.23;10.60;;;21.70;99.90;;;;;;5014040;28;20420;-67
2023/10/02 10:20:09;;;;;;;16.40;9.87;;;21.70;99.90;;;;;;5017173;28;20431;-67
2023/10/02 10:22:41;;;;;;;24.03;12.63;;;21.90;99.90;;;;;;5015349;28;20459;-67
2023/10/02 10:25:35;;;;;;;17.43;10.60;;;22.00;99.90;;;;;;5020561;28;20428;-67
2023/10/02 10:28:05;;;;;;;18.67;10.60;;;22.10;99.90;;;;;;5007432;28;21040;-67
2023/10/02 10:30:39;;;;;;;20.80;11.77;;;22.20;99.90;;;;;;5017088;28;20516;-67
2023/10/02 10:35:48;;;;;;;22.97;13.13;;;22.30;99.90;;;;;;5011441;28;20822;-67
2023/10/02 10:38:34;;;;;;;20.50;12.70;;;22.30;99.90;;;;;;5016675;28;20439;-67
2023/10/02 10:41:06;;;;;;;19.80;12.63;;;22.40;99.90;;;;;;5014166;28;20434;-67
2023/10/02 10:46:17;;;;;;;24.10;13.00;;;22.60;99.90;;;;;;5017322;28;20427;-67
2023/10/02 10:48:48;;;;;;;20.63;12.57;;;22.80;99.90;;;;;;5019888;28;20855;-67
2023/10/02 10:51:21;;;;;;;26.27;13.03;;;22.80;99.90;;;;;;5020650;28;20746;-67
2023/10/02 10:53:52;;;;;;;19.07;12.70;;;22.90;99.90;;;;;;5017398;28;20447;-67
2023/10/02 10:56:18;;;;;;;23.80;12.87;;;22.90;99.90;;;;;;5018334;28;20439;-68
2023/10/02 10:59:02;;;;;;;24.43;13.50;;;23.00;99.90;;;;;;5019501;28;21136;-68
2023/10/02 11:01:27;;;;;;;22.93;13.87;;;23.10;99.90;;;;;;5028061;28;21267;-68
2023/10/02 11:04:02;;;;;;;22.30;12.93;;;23.20;99.90;;;;;;5019802;28;20533;-68
2023/10/02 11:06:28;;;;;;;24.23;13.70;;;23.30;99.90;;;;;;5020648;28;20190;-66
2023/10/02 11:09:11;;;;;;;22.57;12.80;;;23.40;99.90;;;;;;5020480;28;20431;-67
2023/10/02 11:11:56;;;;;;;23.60;13.63;;;23.60;99.90;;;;;;5017702;28;20975;-67
2023/10/02 11:14:35;;;;;;;22.93;13.20;;;23.70;99.90;;;;;;5016458;28;20435;-68
2023/10/02 11:17:04;;;;;;;24.03;13.30;;;23.80;99.90;;;;;;5016715;28;20461;-67
2023/10/02 11:22:19;;;;;;;20.83;13.00;;;24.00;99.90;;;;;;5012294;28;20454;-67
2023/10/02 11:25:18;;;;;;;26.27;14.80;;;24.10;99.90;;;;;;5012200;28;20468;-67
2023/10/02 11:27:56;;;;;;;25.57;13.70;;;24.20;99.90;;;;;;5016061;28;20517;-68
2023/10/02 11:30:31;;;;;;;24.50;14.20;;;24.30;99.90;;;;;;5017408;28;20561;-67
2023/10/02 11:33:04;;;;;;;23.37;14.70;;;24.40;99.90;;;;;;5016276;28;20458;-68
2023/10/02 11:35:37;;;;;;;22.20;13.10;;;24.50;99.90;;;;;;5011116;28;20478;-67
2023/10/02 11:38:03;;;;;;;23.63;13.60;;;24.60;99.90;;;;;;5011486;28;20430;-67
2023/10/02 11:40:29;;;;;;;28.20;14.40;;;24.90;99.90;;;;;;5014552;28;20474;-67
2023/10/02 11:42:59;;;;;;;24.23;14.03;;;25.00;99.90;;;;;;5012255;28;20460;-67
2023/10/02 11:45:29;;;;;;;19.80;12.40;;;25.20;99.90;;;;;;5017827;28;20196;-67
2023/10/02 11:47:55;;;;;;;22.87;13.20;;;25.50;99.90;;;;;;5015702;28;20848;-68
2023/10/02 11:50:21;;;;;;;22.03;12.03;;;26.00;99.90;;;;;;5018129;28;20496;-68
2023/10/02 11:52:47;;;;;;;23.93;14.50;;;27.90;99.90;;;;;;5014432;28;20949;-68
2023/10/02 11:55:17;;;;;;;21.37;14.30;;;30.70;99.90;;;;;;5020530;28;20427;-68
2023/10/02 11:57:44;;;;;;;22.83;15.50;;;33.30;97.20;;;;;;5015574;28;20191;-68
2023/10/02 12:00:12;;;;;;;20.23;13.90;;;35.20;89.70;;;;;;5016054;28;20616;-67
2023/10/02 12:02:39;;;;;;;21.10;13.60;;;36.90;75.20;;;;;;5013331;28;20426;-67
2023/10/02 12:05:07;;;;;;;21.40;14.97;;;38.60;65.60;;;;;;5012412;28;20426;-68
2023/10/02 12:07:33;;;;;;;19.30;14.80;;;40.10;58.20;;;;;;5017333;28;20398;-68
2023/10/02 12:09:58;;;;;;;21.63;15.90;;;41.30;52.50;;;;;;5014963;28;20465;-67
2023/10/02 12:12:25;;;;;;;19.50;14.03;;;42.40;48.60;;;;;;5019040;28;20208;-67
2023/10/02 12:14:51;;;;;;;19.03;14.60;;;43.40;45.30;;;;;;5019263;28;20180;-68
2023/10/02 12:17:17;;;;;;;20.70;15.03;;;44.00;44.00;;;;;;5014644;28;20427;-67
2023/10/02 12:19:44;;;;;;;17.30;13.60;;;44.30;42.80;;;;;;5018226;28;20430;-67
2023/10/02 12:22:09;;;;;;;17.20;14.00;;;45.40;41.10;;;;;;5015041;28;20216;-67
2023/10/02 12:24:36;;;;;;;17.20;14.50;;;46.30;39.10;;;;;;5019382;28;20414;-67
2023/10/02 12:27:04;;;;;;;16.92;13.70;;;46.90;38.40;;;;;;5021157;28;20647;-67
2023/10/02 12:29:29;;;;;;;16.70;14.80;;;47.60;37.00;;;;;;5021547;28;20180;-67
2023/10/02 12:31:59;;;;;;;15.18;12.32;;;48.30;36.00;;;;;;5013298;28;20231;-68
2023/10/02 12:34:25;;;;;;;18.40;14.23;;;48.50;33.90;;;;;;5017911;28;20320;-68
2023/10/02 12:36:51;;;;;;;17.33;13.82;;;48.30;33.50;;;;;;5018803;28;20247;-68
2023/10/02 12:39:16;;;;;;;18.58;14.50;;;48.40;33.80;;;;;;5014519;28;20177;-68
2023/10/02 12:41:42;;;;;;;16.23;13.40;;;48.50;33.00;;;;;;5018720;28;20195;-68
2023/10/02 12:44:08;;;;;;;15.95;14.25;;;48.50;33.50;;;;;;5018205;28;20194;-68
2023/10/02 12:46:43;;;;;;;18.73;14.57;;;49.00;33.00;;;;;;5019506;28;20203;-68
2023/10/02 12:49:09;;;;;;;17.55;13.75;;;49.40;32.30;;;;;;5012663;28;20597;-68
2023/10/02 12:51:34;;;;;;;18.73;14.82;;;49.40;31.20;;;;;;5021168;28;20255;-68
2023/10/02 12:54:00;;;;;;;18.33;15.57;;;49.30;30.80;;;;;;5019548;28;20208;-67
2023/10/02 12:56:26;;;;;;;18.15;15.07;;;48.10;30.70;;;;;;5014928;28;20191;-67
2023/10/02 12:58:55;;;;;;;17.00;13.80;;;46.80;31.00;;;;;;5024258;28;20184;-67
2023/10/02 13:01:27;;;;;;;18.43;14.37;;;45.70;31.70;;;;;;5018571;28;20704;-67
2023/10/02 13:03:59;;;;;;;19.43;15.80;;;44.70;32.60;;;;;;5019538;28;20208;-67
2023/10/02 13:06:26;;;;;;;18.73;14.93;;;44.30;33.10;;;;;;5021497;28;20430;-67
2023/10/02 13:11:39;;;;;;;19.90;15.50;;;44.90;33.00;;;;;;5024185;28;20508;-67
2023/10/02 13:14:08;;;;;;;19.53;15.27;;;45.10;32.80;;;;;;5020294;28;20441;-68
2023/10/02 13:16:37;;;;;;;22.03;16.70;;;45.00;32.70;;;;;;5021993;28;20454;-68
2023/10/02 13:19:09;;;;;;;20.87;16.03;;;44.80;33.20;;;;;;5020728;28;20456;-68
2023/10/02 13:21:38;;;;;;;17.43;14.23;;;44.40;32.80;;;;;;5021909;28;20790;-69
2023/10/02 13:24:06;;;;;;;19.13;15.63;;;44.30;32.80;;;;;;5015418;28;20416;-67
2023/10/02 13:26:32;;;;;;;21.80;16.53;;;44.20;32.80;;;;;;5021508;28;21136;-68
2023/10/02 13:28:58;;;;;;;19.47;16.20;;;43.50;32.30;;;;;;5016358;28;20458;-68
2023/10/02 13:31:24;;;;;;;21.53;15.00;;;42.50;33.00;;;;;;5017992;28;20837;-68
2023/10/02 13:33:52;;;;;;;24.30;16.73;;;41.80;33.50;;;;;;5021738;28;20196;-68
2023/10/02 13:36:23;;;;;;;23.80;17.57;;;41.20;34.10;;;;;;5021077;28;20431;-69
2023/10/02 13:38:56;;;;;;;21.90;16.50;;;40.50;34.20;;;;;;5021427;28;20937;-68
2023/10/02 13:41:22;;;;;;;23.50;17.63;;;39.60;35.20;;;;;;5013034;28;20482;-69
2023/10/02 13:43:52;;;;;;;23.13;16.37;;;39.30;35.40;;;;;;5016234;28;20515;-66
2023/10/02 13:46:20;;;;;;;25.33;17.03;;;39.00;36.20;;;;;;5017785;28;20457;-66